createdAt,value
2018-06-18T00:03:24.922Z,44.10
2018-06-18T00:08:28.136Z,44.10
2018-06-18T00:13:31.749Z,44.10
2018-06-18T00:18:36.302Z,44.10
2018-06-18T00:23:39.728Z,44.10
2018-06-18T00:28:43.170Z,44.10
2018-06-18T00:33:46.487Z,44.10
2018-06-18T00:38:50.134Z,44.10
2018-06-18T00:43:53.644Z,44.10
2018-06-18T00:48:56.821Z,44.10
2018-06-18T00:54:00.872Z,44.10
2018-06-18T00:59:04.255Z,44.00
2018-06-18T01:04:07.587Z,44.10
2018-06-18T01:09:12.291Z,44.10
2018-06-18T01:14:15.550Z,44.00
2018-06-18T01:24:37.449Z,44.10
2018-06-18T01:29:40.654Z,44.10
2018-06-18T01:34:43.901Z,44.10
2018-06-18T01:39:47.461Z,44.10
2018-06-18T01:44:50.714Z,44.10
2018-06-18T01:49:53.984Z,44.10
2018-06-18T01:54:57.303Z,44.00
2018-06-18T02:00:00.528Z,44.10
2018-06-18T02:05:03.881Z,44.10
2018-06-18T02:10:07.211Z,44.00
2018-06-18T02:15:10.428Z,44.10
2018-06-18T02:20:13.889Z,44.10
2018-06-18T02:25:17.299Z,44.10
2018-06-18T02:30:25.733Z,44.00
2018-06-18T02:35:34.752Z,44.00
2018-06-18T02:40:43.251Z,44.00
2018-06-18T02:45:46.697Z,44.00
2018-06-18T02:50:50.000Z,44.00
2018-06-18T02:55:53.227Z,44.00
2018-06-18T03:00:56.443Z,44.00
2018-06-18T03:05:59.672Z,44.00
2018-06-18T03:11:02.898Z,44.00
2018-06-18T03:16:06.420Z,43.90
2018-06-18T03:21:15.219Z,43.90
2018-06-18T03:26:23.909Z,44.00
2018-06-18T03:31:27.109Z,44.00
2018-06-18T03:36:30.362Z,43.80
2018-06-18T03:41:33.562Z,43.80
2018-06-18T03:46:37.199Z,44.00
2018-06-18T03:51:40.471Z,43.70
2018-06-18T03:56:43.701Z,43.60
2018-06-18T04:02:03.172Z,43.60
2018-06-18T04:07:12.787Z,43.50
2018-06-18T04:12:16.051Z,43.50
2018-06-18T04:17:19.398Z,43.50
2018-06-18T04:22:22.628Z,43.50
2018-06-18T04:27:25.864Z,43.50
2018-06-18T04:32:29.278Z,43.40
2018-06-18T04:37:32.564Z,43.20
2018-06-18T04:42:41.700Z,43.10
2018-06-18T04:47:50.311Z,43.00
2018-06-18T04:52:53.712Z,43.00
2018-06-18T04:57:56.958Z,43.10
2018-06-18T05:03:01.028Z,43.10
2018-06-18T05:10:18.490Z,43.20
2018-06-18T05:15:25.978Z,43.20
2018-06-18T05:20:29.296Z,43.30
2018-06-18T05:25:34.142Z,43.40
2018-06-18T05:30:37.687Z,43.40
2018-06-18T05:35:40.957Z,43.40
2018-06-18T05:40:44.501Z,43.40
2018-06-18T05:45:47.823Z,43.40
2018-06-18T05:50:51.261Z,43.50
2018-06-18T05:55:54.776Z,43.40
2018-06-18T06:00:58.057Z,43.40
2018-06-18T06:06:01.451Z,43.50
2018-06-18T06:11:04.645Z,43.50
2018-06-18T06:16:07.838Z,43.50
2018-06-18T06:21:12.852Z,43.50
2018-06-18T06:26:16.157Z,43.50
2018-06-18T06:31:19.617Z,43.50
2018-06-18T06:36:25.747Z,43.50
2018-06-18T06:41:30.098Z,43.50
2018-06-18T06:46:33.393Z,43.50
2018-06-18T06:51:36.900Z,43.50
2018-06-18T06:56:40.266Z,43.50
2018-06-18T07:01:43.723Z,43.50
2018-06-18T07:06:47.193Z,43.50
2018-06-18T07:11:50.511Z,43.40
2018-06-18T07:16:53.778Z,43.30
2018-06-18T07:21:57.617Z,43.10
2018-06-18T07:27:00.946Z,43.10
2018-06-18T07:32:04.149Z,43.10
2018-06-18T07:37:08.016Z,43.10
2018-06-18T07:42:11.298Z,43.20
2018-06-18T07:47:14.757Z,43.30
2018-06-18T07:52:18.092Z,43.30
2018-06-18T07:57:21.387Z,43.30
2018-06-18T08:02:24.711Z,43.40
2018-06-18T08:07:27.997Z,43.40
2018-06-18T08:12:31.545Z,43.40
2018-06-18T08:17:34.764Z,43.40
2018-06-18T08:22:38.087Z,43.40
2018-06-18T08:27:42.549Z,43.40
2018-06-18T08:32:45.844Z,43.40
2018-06-18T08:37:49.051Z,43.40
2018-06-18T08:42:52.318Z,43.40
2018-06-18T08:47:55.994Z,43.40
2018-06-18T08:53:04.655Z,43.40
2018-06-18T08:58:13.531Z,43.30
2018-06-18T09:03:22.940Z,43.40
2018-06-18T09:08:31.489Z,43.30
2018-06-18T09:13:34.802Z,43.30
2018-06-18T09:18:38.409Z,43.30
2018-06-18T09:23:41.685Z,43.40
2018-06-18T09:28:44.983Z,43.30
2018-06-18T09:33:48.465Z,43.30
2018-06-18T09:38:51.692Z,43.30
2018-06-18T09:43:54.926Z,43.30
2018-06-18T09:49:03.717Z,43.20
2018-06-18T09:55:11.551Z,43.20
2018-06-18T10:00:32.477Z,43.20
2018-06-18T10:05:35.665Z,43.20
2018-06-18T10:10:38.995Z,43.20
2018-06-18T10:15:42.224Z,43.20
2018-06-18T10:20:45.469Z,43.20
2018-06-18T10:25:48.873Z,43.20
2018-06-18T10:30:53.179Z,43.20
2018-06-18T10:36:01.877Z,43.10
2018-06-18T10:41:10.681Z,43.10
2018-06-18T10:46:14.009Z,43.10
2018-06-18T10:51:17.263Z,43.10
2018-06-18T10:56:20.542Z,43.10
2018-06-18T11:01:28.616Z,43.20
2018-06-18T11:06:35.959Z,43.20
2018-06-18T11:16:43.064Z,43.80
2018-06-18T11:21:51.418Z,43.20
2018-06-18T11:26:57.219Z,43.20
2018-06-18T11:32:00.412Z,43.20
2018-06-18T11:37:04.015Z,43.20
2018-06-18T11:42:07.487Z,43.20
2018-06-18T11:47:11.440Z,43.00
2018-06-18T11:52:14.642Z,43.20
2018-06-18T11:57:17.836Z,43.20
2018-06-18T12:02:26.569Z,43.20
2018-06-18T12:07:35.154Z,43.20
2018-06-18T12:12:40.589Z,43.10
2018-06-18T12:17:43.936Z,43.80
2018-06-18T12:22:47.413Z,43.20
2018-06-18T12:27:50.650Z,43.70
2018-06-18T12:32:53.992Z,43.20
2018-06-18T12:37:57.524Z,43.20
2018-06-18T12:43:01.324Z,43.20
2018-06-18T12:48:09.949Z,43.20
2018-06-18T12:53:18.701Z,43.20
2018-06-18T12:58:23.264Z,43.20
2018-06-18T13:03:27.342Z,43.20
2018-06-18T13:08:30.602Z,43.20
2018-06-18T13:13:33.967Z,43.20
2018-06-18T13:18:37.270Z,43.20
2018-06-18T13:23:41.253Z,43.20
2018-06-18T13:28:44.527Z,43.20
2018-06-18T13:33:48.053Z,43.20
2018-06-18T13:38:57.037Z,43.20
2018-06-18T13:44:05.784Z,42.80
2018-06-18T13:49:09.056Z,43.20
2018-06-18T13:54:12.317Z,43.20
2018-06-18T13:59:15.643Z,43.80
2018-06-18T14:04:18.902Z,43.20
2018-06-18T14:09:22.275Z,43.20
2018-06-18T14:14:26.290Z,43.20
2018-06-18T14:19:34.836Z,43.20
2018-06-18T14:24:38.445Z,43.20
2018-06-18T14:29:47.345Z,43.20
2018-06-18T14:34:56.350Z,43.20
2018-06-18T14:40:04.170Z,43.90
2018-06-18T14:45:07.512Z,43.30
2018-06-18T14:50:10.835Z,43.30
2018-06-18T14:55:14.814Z,43.30
2018-06-18T15:00:23.495Z,43.30
2018-06-18T15:05:31.395Z,43.30
2018-06-18T15:10:40.090Z,43.30
2018-06-18T15:15:48.950Z,43.30
2018-06-18T15:20:55.744Z,43.30
2018-06-18T15:25:59.370Z,43.40
2018-06-18T15:31:02.595Z,43.40
2018-06-18T15:36:06.102Z,43.40
2018-06-18T15:41:09.762Z,43.40
2018-06-18T15:46:13.521Z,43.40
2018-06-18T15:51:17.110Z,43.40
2018-06-18T15:56:20.389Z,43.30
2018-06-18T16:01:23.623Z,43.40
2018-06-18T16:06:26.912Z,43.40
2018-06-18T16:11:31.412Z,43.30
2018-06-18T16:16:34.896Z,43.30
2018-06-18T16:21:38.473Z,43.30
2018-06-18T16:26:41.716Z,44.00
2018-06-18T16:31:45.041Z,43.30
2018-06-18T16:36:48.351Z,43.30
2018-06-18T16:41:51.552Z,43.40
2018-06-18T16:46:54.826Z,43.40
2018-06-18T16:51:58.302Z,43.30
2018-06-18T16:57:01.600Z,43.30
2018-06-18T17:02:05.557Z,43.40
2018-06-18T17:07:08.806Z,43.40
2018-06-18T17:12:12.090Z,43.40
2018-06-18T17:17:15.416Z,43.40
2018-06-18T17:22:18.998Z,43.40
2018-06-18T17:27:22.658Z,43.40
2018-06-18T17:32:26.220Z,43.40
2018-06-18T17:37:29.705Z,43.40
2018-06-18T17:42:33.137Z,43.40
2018-06-18T17:47:36.464Z,43.40
2018-06-18T17:52:39.695Z,44.10
2018-06-18T17:57:42.920Z,43.40
2018-06-18T18:02:46.246Z,43.40
2018-06-18T18:07:49.541Z,44.00
2018-06-18T18:12:52.810Z,43.50
2018-06-18T18:17:56.123Z,43.40
2018-06-18T18:22:59.725Z,43.40
2018-06-18T18:28:03.772Z,43.40
2018-06-18T18:33:07.071Z,43.40
2018-06-18T18:38:10.310Z,43.50
2018-06-18T18:48:24.907Z,43.40
2018-06-18T18:53:28.249Z,43.40
2018-06-18T18:58:53.878Z,43.40
2018-06-18T19:03:59.699Z,43.40
2018-06-18T19:09:03.102Z,43.40
2018-06-18T19:14:06.387Z,43.40
2018-06-18T19:19:09.808Z,43.40
2018-06-18T19:24:13.109Z,43.50
2018-06-18T19:29:16.466Z,43.50
2018-06-18T19:34:23.707Z,43.50
2018-06-18T19:39:28.868Z,43.60
2018-06-18T19:44:32.095Z,43.60
2018-06-18T19:49:35.323Z,43.50
2018-06-18T19:54:42.286Z,43.50
2018-06-18T19:59:45.514Z,43.50
2018-06-18T20:04:48.802Z,43.50
2018-06-18T20:09:52.225Z,43.50
2018-06-18T20:14:55.568Z,43.50
2018-06-18T20:19:59.007Z,43.70
2018-06-18T20:25:02.371Z,43.50
2018-06-18T20:30:07.782Z,43.50
2018-06-18T20:35:22.018Z,43.50
2018-06-18T20:40:26.414Z,43.50
2018-06-18T20:45:29.926Z,43.50
2018-06-18T20:50:33.414Z,43.50
2018-06-18T20:55:36.687Z,43.60
2018-06-18T21:00:40.194Z,43.60
2018-06-18T21:05:43.440Z,43.60
2018-06-18T21:10:46.779Z,43.60
2018-06-18T21:15:50.147Z,43.60
2018-06-18T21:20:53.359Z,43.60
2018-06-18T21:30:59.981Z,43.60
2018-06-18T21:36:03.223Z,43.50
2018-06-18T21:41:06.528Z,43.60
2018-06-18T21:46:09.996Z,43.60
2018-06-18T21:51:13.286Z,43.60
2018-06-18T21:56:16.645Z,43.60
2018-06-18T22:01:31.226Z,43.60
2018-06-18T22:06:34.770Z,43.60
2018-06-18T22:11:38.071Z,43.60
2018-06-18T22:16:41.569Z,43.60
2018-06-18T22:21:44.807Z,43.60
2018-06-18T22:26:48.088Z,43.60
2018-06-18T22:31:51.361Z,43.60
2018-06-18T22:36:54.846Z,43.60
2018-06-18T22:41:58.122Z,43.60
2018-06-18T22:47:01.343Z,43.60
2018-06-18T22:52:04.589Z,43.60
2018-06-18T22:57:08.018Z,43.60
2018-06-18T23:02:12.210Z,43.70
2018-06-18T23:07:15.756Z,43.60
2018-06-18T23:12:20.471Z,43.60
2018-06-18T23:17:23.675Z,43.60
2018-06-18T23:22:27.135Z,43.60
2018-06-18T23:27:30.347Z,43.60
2018-06-18T23:32:33.701Z,43.70
2018-06-18T23:37:37.071Z,43.70
2018-06-18T23:42:40.314Z,43.60
2018-06-18T23:47:43.591Z,43.70
2018-06-18T23:52:46.970Z,43.60
2018-06-18T23:57:50.190Z,43.70
